sensor_id;sensor_type;location;lat;lon;timestamp;P1;durP1;ratioP1;P2;durP2;ratioP2
55220;SDS011;41089;51.448;6.604;2022-07-22T00:03:52;13.97;;;5.20;;
55220;SDS011;41089;51.448;6.604;2022-07-22T00:09:52;13.15;;;5.68;;
55220;SDS011;41089;51.448;6.604;2022-07-22T00:15:52;11.75;;;5.35;;
55220;SDS011;41089;51.448;6.604;2022-07-22T00:21:53;9.63;;;4.50;;
55220;SDS011;41089;51.448;6.604;2022-07-22T00:27:53;13.17;;;4.73;;
55220;SDS011;41089;51.448;6.604;2022-07-22T00:33:54;11.02;;;5.05;;
55220;SDS011;41089;51.448;6.604;2022-07-22T00:39:54;15.53;;;6.03;;
55220;SDS011;41089;51.448;6.604;2022-07-22T00:45:55;13.85;;;6.40;;
55220;SDS011;41089;51.448;6.604;2022-07-22T00:51:55;9.43;;;5.33;;
55220;SDS011;41089;51.448;6.604;2022-07-22T00:57:56;14.38;;;6.18;;
55220;SDS011;41089;51.448;6.604;2022-07-22T01:03:56;11.40;;;5.97;;
55220;SDS011;41089;51.448;6.604;2022-07-22T01:09:56;14.77;;;6.87;;
55220;SDS011;41089;51.448;6.604;2022-07-22T01:15:57;8.23;;;5.33;;
55220;SDS011;41089;51.448;6.604;2022-07-22T01:21:57;15.05;;;6.20;;
55220;SDS011;41089;51.448;6.604;2022-07-22T01:27:58;9.00;;;5.77;;
55220;SDS011;41089;51.448;6.604;2022-07-22T01:33:58;13.05;;;7.70;;
55220;SDS011;41089;51.448;6.604;2022-07-22T01:39:59;10.63;;;6.25;;
55220;SDS011;41089;51.448;6.604;2022-07-22T01:46:00;12.70;;;6.63;;
55220;SDS011;41089;51.448;6.604;2022-07-22T01:52:01;11.45;;;6.22;;
55220;SDS011;41089;51.448;6.604;2022-07-22T01:58:02;10.77;;;6.22;;
55220;SDS011;41089;51.448;6.604;2022-07-22T02:04:04;8.02;;;5.85;;
55220;SDS011;41089;51.448;6.604;2022-07-22T02:10:05;9.48;;;6.20;;
55220;SDS011;41089;51.448;6.604;2022-07-22T02:16:05;13.60;;;6.78;;
55220;SDS011;41089;51.448;6.604;2022-07-22T02:22:06;14.43;;;5.97;;
55220;SDS011;41089;51.448;6.604;2022-07-22T02:28:06;9.33;;;5.90;;
55220;SDS011;41089;51.448;6.604;2022-07-22T02:34:07;10.93;;;5.63;;
55220;SDS011;41089;51.448;6.604;2022-07-22T02:40:08;11.23;;;5.65;;
55220;SDS011;41089;51.448;6.604;2022-07-22T02:46:09;8.93;;;4.72;;
55220;SDS011;41089;51.448;6.604;2022-07-22T02:52:09;10.77;;;4.97;;
55220;SDS011;41089;51.448;6.604;2022-07-22T02:58:09;7.75;;;3.95;;
55220;SDS011;41089;51.448;6.604;2022-07-22T03:04:10;11.00;;;4.40;;
55220;SDS011;41089;51.448;6.604;2022-07-22T03:10:10;11.35;;;4.35;;
55220;SDS011;41089;51.448;6.604;2022-07-22T03:16:11;11.07;;;3.55;;
55220;SDS011;41089;51.448;6.604;2022-07-22T03:22:11;8.90;;;3.90;;
55220;SDS011;41089;51.448;6.604;2022-07-22T03:28:12;7.00;;;3.80;;
55220;SDS011;41089;51.448;6.604;2022-07-22T03:34:12;6.33;;;3.10;;
55220;SDS011;41089;51.448;6.604;2022-07-22T03:40:13;7.95;;;3.05;;
55220;SDS011;41089;51.448;6.604;2022-07-22T03:46:34;9.48;;;3.38;;
55220;SDS011;41089;51.448;6.604;2022-07-22T03:52:34;6.53;;;2.40;;
55220;SDS011;41089;51.448;6.604;2022-07-22T03:58:34;12.38;;;4.15;;
55220;SDS011;41089;51.448;6.604;2022-07-22T04:04:35;8.38;;;2.63;;
55220;SDS011;41089;51.448;6.604;2022-07-22T04:10:35;8.10;;;2.88;;
55220;SDS011;41089;51.448;6.604;2022-07-22T04:16:36;7.30;;;3.13;;
55220;SDS011;41089;51.448;6.604;2022-07-22T04:22:36;7.50;;;2.58;;
55220;SDS011;41089;51.448;6.604;2022-07-22T04:28:37;8.48;;;2.95;;
55220;SDS011;41089;51.448;6.604;2022-07-22T04:34:37;4.97;;;2.93;;
55220;SDS011;41089;51.448;6.604;2022-07-22T04:40:38;6.38;;;3.15;;
55220;SDS011;41089;51.448;6.604;2022-07-22T04:46:38;11.00;;;2.60;;
55220;SDS011;41089;51.448;6.604;2022-07-22T04:52:38;10.90;;;3.33;;
55220;SDS011;41089;51.448;6.604;2022-07-22T04:58:39;7.00;;;3.05;;
55220;SDS011;41089;51.448;6.604;2022-07-22T05:04:39;9.65;;;3.15;;
55220;SDS011;41089;51.448;6.604;2022-07-22T05:10:40;8.32;;;2.95;;
55220;SDS011;41089;51.448;6.604;2022-07-22T05:16:40;9.47;;;2.77;;
55220;SDS011;41089;51.448;6.604;2022-07-22T05:22:40;7.72;;;3.25;;
55220;SDS011;41089;51.448;6.604;2022-07-22T05:28:41;9.75;;;2.92;;
55220;SDS011;41089;51.448;6.604;2022-07-22T05:34:41;12.07;;;4.15;;
55220;SDS011;41089;51.448;6.604;2022-07-22T05:40:41;16.50;;;4.35;;
55220;SDS011;41089;51.448;6.604;2022-07-22T05:46:42;5.63;;;2.77;;
55220;SDS011;41089;51.448;6.604;2022-07-22T05:52:42;8.00;;;3.13;;
55220;SDS011;41089;51.448;6.604;2022-07-22T05:58:43;9.63;;;3.17;;
55220;SDS011;41089;51.448;6.604;2022-07-22T06:04:43;15.20;;;3.63;;
55220;SDS011;41089;51.448;6.604;2022-07-22T06:10:43;7.60;;;2.38;;
55220;SDS011;41089;51.448;6.604;2022-07-22T06:16:44;13.40;;;3.00;;
55220;SDS011;41089;51.448;6.604;2022-07-22T06:22:44;8.60;;;2.77;;
55220;SDS011;41089;51.448;6.604;2022-07-22T06:28:47;8.63;;;2.83;;
55220;SDS011;41089;51.448;6.604;2022-07-22T06:34:48;8.73;;;2.37;;
55220;SDS011;41089;51.448;6.604;2022-07-22T06:40:48;6.70;;;2.92;;
55220;SDS011;41089;51.448;6.604;2022-07-22T06:46:49;8.18;;;2.65;;
55220;SDS011;41089;51.448;6.604;2022-07-22T06:52:49;8.97;;;3.13;;
55220;SDS011;41089;51.448;6.604;2022-07-22T06:58:50;7.18;;;2.42;;
55220;SDS011;41089;51.448;6.604;2022-07-22T07:04:50;9.93;;;2.97;;
55220;SDS011;41089;51.448;6.604;2022-07-22T07:10:52;9.80;;;3.80;;
55220;SDS011;41089;51.448;6.604;2022-07-22T07:16:52;7.73;;;3.03;;
55220;SDS011;41089;51.448;6.604;2022-07-22T07:22:53;4.65;;;2.28;;
55220;SDS011;41089;51.448;6.604;2022-07-22T07:28:54;9.95;;;2.60;;
55220;SDS011;41089;51.448;6.604;2022-07-22T07:34:54;10.48;;;2.95;;
55220;SDS011;41089;51.448;6.604;2022-07-22T07:40:54;6.43;;;2.47;;
55220;SDS011;41089;51.448;6.604;2022-07-22T07:46:55;8.95;;;2.42;;
55220;SDS011;41089;51.448;6.604;2022-07-22T07:52:56;5.50;;;2.37;;
55220;SDS011;41089;51.448;6.604;2022-07-22T07:58:57;5.85;;;2.38;;
55220;SDS011;41089;51.448;6.604;2022-07-22T08:04:57;5.68;;;2.22;;
55220;SDS011;41089;51.448;6.604;2022-07-22T08:10:58;8.30;;;2.55;;
55220;SDS011;41089;51.448;6.604;2022-07-22T08:16:58;7.27;;;2.47;;
55220;SDS011;41089;51.448;6.604;2022-07-22T08:22:59;7.25;;;2.80;;
55220;SDS011;41089;51.448;6.604;2022-07-22T08:28:59;4.50;;;2.40;;
55220;SDS011;41089;51.448;6.604;2022-07-22T08:35:00;8.93;;;2.80;;
55220;SDS011;41089;51.448;6.604;2022-07-22T08:41:02;5.45;;;2.45;;
55220;SDS011;41089;51.448;6.604;2022-07-22T08:47:03;4.03;;;1.83;;
55220;SDS011;41089;51.448;6.604;2022-07-22T08:53:04;5.03;;;2.58;;
55220;SDS011;41089;51.448;6.604;2022-07-22T08:59:04;10.02;;;2.63;;
55220;SDS011;41089;51.448;6.604;2022-07-22T09:05:06;5.72;;;2.70;;
55220;SDS011;41089;51.448;6.604;2022-07-22T09:11:15;2.90;;;2.10;;
55220;SDS011;41089;51.448;6.604;2022-07-22T09:17:26;2.08;;;1.63;;
55220;SDS011;41089;51.448;6.604;2022-07-22T09:23:38;3.97;;;2.35;;
55220;SDS011;41089;51.448;6.604;2022-07-22T09:29:42;3.33;;;1.90;;
55220;SDS011;41089;51.448;6.604;2022-07-22T09:35:48;5.60;;;2.60;;
55220;SDS011;41089;51.448;6.604;2022-07-22T09:41:59;3.20;;;2.35;;
55220;SDS011;41089;51.448;6.604;2022-07-22T09:48:01;3.88;;;1.90;;
55220;SDS011;41089;51.448;6.604;2022-07-22T09:54:02;3.75;;;2.20;;
55220;SDS011;41089;51.448;6.604;2022-07-22T10:00:03;3.95;;;2.20;;
55220;SDS011;41089;51.448;6.604;2022-07-22T10:06:06;4.93;;;2.00;;
55220;SDS011;41089;51.448;6.604;2022-07-22T10:12:07;4.80;;;2.30;;
55220;SDS011;41089;51.448;6.604;2022-07-22T10:18:15;4.85;;;2.63;;
55220;SDS011;41089;51.448;6.604;2022-07-22T10:24:16;2.60;;;2.15;;
55220;SDS011;41089;51.448;6.604;2022-07-22T10:30:27;2.17;;;1.92;;
55220;SDS011;41089;51.448;6.604;2022-07-22T10:36:40;4.88;;;1.80;;
55220;SDS011;41089;51.448;6.604;2022-07-22T10:48:58;5.85;;;3.03;;
55220;SDS011;41089;51.448;6.604;2022-07-22T11:01:32;6.47;;;3.13;;
55220;SDS011;41089;51.448;6.604;2022-07-22T11:07:32;6.28;;;2.90;;
55220;SDS011;41089;51.448;6.604;2022-07-22T11:13:34;3.92;;;2.40;;
55220;SDS011;41089;51.448;6.604;2022-07-22T11:19:40;6.28;;;2.42;;
55220;SDS011;41089;51.448;6.604;2022-07-22T11:25:40;2.73;;;2.10;;
55220;SDS011;41089;51.448;6.604;2022-07-22T11:31:40;5.13;;;1.95;;
55220;SDS011;41089;51.448;6.604;2022-07-22T11:37:41;3.60;;;2.45;;
55220;SDS011;41089;51.448;6.604;2022-07-22T11:43:46;3.15;;;2.40;;
55220;SDS011;41089;51.448;6.604;2022-07-22T11:49:47;6.95;;;2.67;;
55220;SDS011;41089;51.448;6.604;2022-07-22T11:55:48;3.22;;;2.40;;
55220;SDS011;41089;51.448;6.604;2022-07-22T12:01:49;5.50;;;2.53;;
55220;SDS011;41089;51.448;6.604;2022-07-22T12:07:49;4.80;;;2.28;;
55220;SDS011;41089;51.448;6.604;2022-07-22T12:13:51;3.83;;;2.50;;
55220;SDS011;41089;51.448;6.604;2022-07-22T12:19:52;4.68;;;1.88;;
55220;SDS011;41089;51.448;6.604;2022-07-22T12:25:54;3.37;;;2.07;;
55220;SDS011;41089;51.448;6.604;2022-07-22T12:31:56;4.88;;;2.00;;
55220;SDS011;41089;51.448;6.604;2022-07-22T12:38:05;8.07;;;3.33;;
55220;SDS011;41089;51.448;6.604;2022-07-22T12:44:07;7.35;;;2.75;;
55220;SDS011;41089;51.448;6.604;2022-07-22T12:56:34;8.85;;;2.78;;
55220;SDS011;41089;51.448;6.604;2022-07-22T13:02:35;6.05;;;3.05;;
55220;SDS011;41089;51.448;6.604;2022-07-22T13:08:36;4.45;;;2.47;;
55220;SDS011;41089;51.448;6.604;2022-07-22T13:14:37;5.68;;;2.55;;
55220;SDS011;41089;51.448;6.604;2022-07-22T13:20:38;4.03;;;3.13;;
55220;SDS011;41089;51.448;6.604;2022-07-22T13:26:38;5.00;;;3.15;;
55220;SDS011;41089;51.448;6.604;2022-07-22T13:32:39;4.38;;;2.83;;
55220;SDS011;41089;51.448;6.604;2022-07-22T13:38:39;8.07;;;3.50;;
55220;SDS011;41089;51.448;6.604;2022-07-22T13:44:40;5.53;;;2.90;;
55220;SDS011;41089;51.448;6.604;2022-07-22T13:50:40;4.82;;;3.17;;
55220;SDS011;41089;51.448;6.604;2022-07-22T13:56:41;4.63;;;2.80;;
55220;SDS011;41089;51.448;6.604;2022-07-22T14:02:44;5.53;;;3.08;;
55220;SDS011;41089;51.448;6.604;2022-07-22T14:08:45;6.38;;;3.20;;
55220;SDS011;41089;51.448;6.604;2022-07-22T14:14:45;5.63;;;2.70;;
55220;SDS011;41089;51.448;6.604;2022-07-22T14:20:46;5.23;;;2.80;;
55220;SDS011;41089;51.448;6.604;2022-07-22T14:26:46;6.75;;;2.95;;
55220;SDS011;41089;51.448;6.604;2022-07-22T14:32:47;6.90;;;3.30;;
55220;SDS011;41089;51.448;6.604;2022-07-22T14:38:47;5.85;;;3.17;;
55220;SDS011;41089;51.448;6.604;2022-07-22T14:44:50;5.70;;;3.53;;
55220;SDS011;41089;51.448;6.604;2022-07-22T14:50:50;5.78;;;2.80;;
55220;SDS011;41089;51.448;6.604;2022-07-22T14:56:50;4.18;;;2.97;;
55220;SDS011;41089;51.448;6.604;2022-07-22T15:02:51;4.93;;;3.05;;
55220;SDS011;41089;51.448;6.604;2022-07-22T15:08:51;6.63;;;3.33;;
55220;SDS011;41089;51.448;6.604;2022-07-22T15:14:51;5.05;;;2.80;;
55220;SDS011;41089;51.448;6.604;2022-07-22T15:20:52;4.63;;;2.88;;
55220;SDS011;41089;51.448;6.604;2022-07-22T15:26:56;7.78;;;3.10;;
55220;SDS011;41089;51.448;6.604;2022-07-22T15:32:57;4.78;;;2.90;;
55220;SDS011;41089;51.448;6.604;2022-07-22T15:38:57;4.75;;;2.83;;
55220;SDS011;41089;51.448;6.604;2022-07-22T15:44:58;6.03;;;3.22;;
55220;SDS011;41089;51.448;6.604;2022-07-22T15:50:58;4.37;;;3.00;;
55220;SDS011;41089;51.448;6.604;2022-07-22T15:57:00;5.30;;;2.72;;
55220;SDS011;41089;51.448;6.604;2022-07-22T16:03:19;5.78;;;2.80;;
55220;SDS011;41089;51.448;6.604;2022-07-22T16:09:19;7.65;;;3.25;;
55220;SDS011;41089;51.448;6.604;2022-07-22T16:15:19;8.17;;;3.70;;
55220;SDS011;41089;51.448;6.604;2022-07-22T16:21:20;4.30;;;3.00;;
55220;SDS011;41089;51.448;6.604;2022-07-22T16:27:20;5.63;;;2.80;;
55220;SDS011;41089;51.448;6.604;2022-07-22T16:33:21;5.72;;;2.90;;
55220;SDS011;41089;51.448;6.604;2022-07-22T16:39:21;7.07;;;3.30;;
55220;SDS011;41089;51.448;6.604;2022-07-22T16:45:22;4.65;;;3.08;;
55220;SDS011;41089;51.448;6.604;2022-07-22T16:51:22;4.93;;;3.10;;
55220;SDS011;41089;51.448;6.604;2022-07-22T16:57:23;6.78;;;3.03;;
55220;SDS011;41089;51.448;6.604;2022-07-22T17:03:23;4.70;;;2.78;;
55220;SDS011;41089;51.448;6.604;2022-07-22T17:09:24;6.13;;;3.23;;
55220;SDS011;41089;51.448;6.604;2022-07-22T17:15:24;6.63;;;2.83;;
55220;SDS011;41089;51.448;6.604;2022-07-22T17:21:24;4.20;;;2.63;;
55220;SDS011;41089;51.448;6.604;2022-07-22T17:27:25;4.35;;;2.72;;
55220;SDS011;41089;51.448;6.604;2022-07-22T17:33:25;4.43;;;2.30;;
55220;SDS011;41089;51.448;6.604;2022-07-22T17:39:26;4.43;;;2.93;;
55220;SDS011;41089;51.448;6.604;2022-07-22T17:45:26;4.18;;;2.55;;
55220;SDS011;41089;51.448;6.604;2022-07-22T17:51:27;5.63;;;2.95;;
55220;SDS011;41089;51.448;6.604;2022-07-22T17:57:30;2.50;;;2.30;;
55220;SDS011;41089;51.448;6.604;2022-07-22T18:03:31;5.78;;;2.83;;
55220;SDS011;41089;51.448;6.604;2022-07-22T18:09:31;4.50;;;2.47;;
55220;SDS011;41089;51.448;6.604;2022-07-22T18:15:32;3.07;;;1.93;;
55220;SDS011;41089;51.448;6.604;2022-07-22T18:21:35;3.38;;;2.25;;
55220;SDS011;41089;51.448;6.604;2022-07-22T18:27:37;4.15;;;2.40;;
55220;SDS011;41089;51.448;6.604;2022-07-22T18:33:37;6.73;;;2.60;;
55220;SDS011;41089;51.448;6.604;2022-07-22T18:39:38;4.43;;;2.47;;
55220;SDS011;41089;51.448;6.604;2022-07-22T18:45:38;4.10;;;2.47;;
55220;SDS011;41089;51.448;6.604;2022-07-22T18:51:38;5.53;;;2.40;;
55220;SDS011;41089;51.448;6.604;2022-07-22T18:57:39;6.40;;;2.87;;
55220;SDS011;41089;51.448;6.604;2022-07-22T19:03:39;4.40;;;3.03;;
55220;SDS011;41089;51.448;6.604;2022-07-22T19:09:40;4.03;;;2.13;;
55220;SDS011;41089;51.448;6.604;2022-07-22T19:15:40;6.10;;;2.22;;
55220;SDS011;41089;51.448;6.604;2022-07-22T19:21:41;5.10;;;2.35;;
55220;SDS011;41089;51.448;6.604;2022-07-22T19:27:41;2.33;;;2.00;;
55220;SDS011;41089;51.448;6.604;2022-07-22T19:33:42;2.87;;;2.27;;
55220;SDS011;41089;51.448;6.604;2022-07-22T19:39:42;3.92;;;2.20;;
55220;SDS011;41089;51.448;6.604;2022-07-22T19:45:47;2.42;;;2.00;;
55220;SDS011;41089;51.448;6.604;2022-07-22T19:51:47;3.20;;;2.20;;
55220;SDS011;41089;51.448;6.604;2022-07-22T19:57:48;3.25;;;2.20;;
55220;SDS011;41089;51.448;6.604;2022-07-22T20:03:48;3.93;;;2.20;;
55220;SDS011;41089;51.448;6.604;2022-07-22T20:09:49;5.03;;;2.40;;
55220;SDS011;41089;51.448;6.604;2022-07-22T20:15:49;4.37;;;2.67;;
55220;SDS011;41089;51.448;6.604;2022-07-22T20:21:50;4.68;;;2.38;;
55220;SDS011;41089;51.448;6.604;2022-07-22T20:27:50;5.17;;;2.67;;
55220;SDS011;41089;51.448;6.604;2022-07-22T20:33:51;3.60;;;2.17;;
55220;SDS011;41089;51.448;6.604;2022-07-22T20:39:51;3.10;;;2.20;;
55220;SDS011;41089;51.448;6.604;2022-07-22T20:45:52;4.77;;;2.80;;
55220;SDS011;41089;51.448;6.604;2022-07-22T20:51:52;4.37;;;2.37;;
55220;SDS011;41089;51.448;6.604;2022-07-22T20:57:52;5.68;;;2.97;;
55220;SDS011;41089;51.448;6.604;2022-07-22T21:03:53;5.57;;;2.93;;
55220;SDS011;41089;51.448;6.604;2022-07-22T21:09:53;3.53;;;2.40;;
55220;SDS011;41089;51.448;6.604;2022-07-22T21:15:54;5.35;;;2.50;;
55220;SDS011;41089;51.448;6.604;2022-07-22T21:21:54;3.57;;;2.30;;
55220;SDS011;41089;51.448;6.604;2022-07-22T21:27:55;6.63;;;2.60;;
55220;SDS011;41089;51.448;6.604;2022-07-22T21:33:55;4.17;;;2.80;;
55220;SDS011;41089;51.448;6.604;2022-07-22T21:39:56;4.40;;;2.90;;
55220;SDS011;41089;51.448;6.604;2022-07-22T21:45:56;6.95;;;3.10;;
55220;SDS011;41089;51.448;6.604;2022-07-22T21:51:57;5.78;;;2.60;;
55220;SDS011;41089;51.448;6.604;2022-07-22T21:57:57;4.60;;;2.50;;
55220;SDS011;41089;51.448;6.604;2022-07-22T22:03:59;6.20;;;2.95;;
55220;SDS011;41089;51.448;6.604;2022-07-22T22:09:59;4.38;;;2.63;;
55220;SDS011;41089;51.448;6.604;2022-07-22T22:16:00;5.93;;;3.03;;
55220;SDS011;41089;51.448;6.604;2022-07-22T22:22:01;6.22;;;2.85;;
55220;SDS011;41089;51.448;6.604;2022-07-22T22:28:01;6.40;;;3.50;;
55220;SDS011;41089;51.448;6.604;2022-07-22T22:34:02;6.13;;;4.05;;
55220;SDS011;41089;51.448;6.604;2022-07-22T22:40:03;6.68;;;3.42;;
55220;SDS011;41089;51.448;6.604;2022-07-22T22:46:04;11.15;;;4.20;;
55220;SDS011;41089;51.448;6.604;2022-07-22T22:52:05;9.73;;;4.78;;
55220;SDS011;41089;51.448;6.604;2022-07-22T22:58:05;14.98;;;5.57;;
55220;SDS011;41089;51.448;6.604;2022-07-22T23:04:05;7.63;;;4.50;;
55220;SDS011;41089;51.448;6.604;2022-07-22T23:10:06;5.40;;;3.88;;
55220;SDS011;41089;51.448;6.604;2022-07-22T23:16:06;6.10;;;4.65;;
55220;SDS011;41089;51.448;6.604;2022-07-22T23:22:07;9.25;;;5.22;;
55220;SDS011;41089;51.448;6.604;2022-07-22T23:28:09;7.13;;;5.00;;
55220;SDS011;41089;51.448;6.604;2022-07-22T23:34:10;7.33;;;5.00;;
55220;SDS011;41089;51.448;6.604;2022-07-22T23:40:10;6.83;;;6.07;;
55220;SDS011;41089;51.448;6.604;2022-07-22T23:46:11;8.20;;;5.97;;
55220;SDS011;41089;51.448;6.604;2022-07-22T23:52:11;8.03;;;5.73;;
55220;SDS011;41089;51.448;6.604;2022-07-22T23:58:12;7.80;;;7.03;;
